EGXW/WTN METAR and TAF weather

Enter ICAO airport designator
Station Type Date Time Source
EGXW METAR 2021/04/18 01:50 UTC NOAA

EGXW 180150Z AUTO 13002KT 9999 FEW180/// 03/M01 Q1026


Station Type Date Time Source
EGXW Decoded METAR 2021/04/18 01:50 UTC NOAA

Waddington, United Kingdom (EGXW) 53-10N 000-31W 0M
Apr 17, 2021 - 09:50 PM EDT / 2021.04.18 0150 UTC
Wind: from the SE (130 degrees) at 2 MPH (2 KT):0
Visibility: greater than 7 mile(s):0
Sky conditions: mostly clear
Temperature: 37 F (3 C)
Dew Point: 30 F (-1 C)
Relative Humidity: 74%
Pressure (altimeter): 30.30 in. Hg (1026 hPa)
ob: EGXW 180150Z AUTO 13002KT 9999 FEW180/// 03/M01 Q1026
cycle: 2

Station Type Date Time Source
EGXW TAF 2021/04/18 03:06 UTC NOAA

TAF TAF EGXW 180101Z 1803/1821 VRB03KT CAVOK

Example: see airport list